createdAt,value
2022-10-01T00:01:29.214Z,100206.53
2022-10-01T00:03:57.149Z,100209.29
2022-10-01T00:06:25.219Z,100216.25
2022-10-01T00:08:53.001Z,100213.27
2022-10-01T00:11:26.099Z,100210.65
2022-10-01T00:13:54.503Z,100211.55
2022-10-01T00:16:26.448Z,100212.27
2022-10-01T00:18:54.838Z,100217.57
2022-10-01T00:21:26.564Z,100221.00
2022-10-01T00:24:00.412Z,100221.77
2022-10-01T00:26:31.235Z,100221.91
2022-10-01T00:29:02.062Z,100217.83
2022-10-01T00:31:30.472Z,100218.07
2022-10-01T00:34:00.677Z,100218.05
2022-10-01T00:36:29.039Z,100221.93
2022-10-01T00:39:00.787Z,100226.57
2022-10-01T00:41:32.502Z,100232.05
2022-10-01T00:44:03.674Z,100236.83
2022-10-01T00:46:46.024Z,100233.71
2022-10-01T00:49:20.895Z,100230.98
2022-10-01T00:51:54.546Z,100227.72
2022-10-01T00:54:25.172Z,100224.50
2022-10-01T00:56:57.152Z,100220.59
2022-10-01T00:59:26.367Z,100216.93
2022-10-01T01:01:54.283Z,100212.57
2022-10-01T01:04:23.013Z,100208.13
2022-10-01T01:06:58.453Z,100207.80
2022-10-01T01:09:36.005Z,100206.69
2022-10-01T01:12:06.885Z,100211.45
2022-10-01T01:15:12.946Z,100213.72
2022-10-01T01:18:17.263Z,100212.44
2022-10-01T01:21:08.676Z,100216.52
2022-10-01T01:24:12.444Z,100213.58
2022-10-01T01:27:06.396Z,100215.16
2022-10-01T01:29:53.096Z,100218.96
2022-10-01T01:32:30.809Z,100221.23
2022-10-01T01:35:02.393Z,100223.66
2022-10-01T01:37:38.099Z,100223.27
2022-10-01T01:40:11.783Z,100221.35
2022-10-01T01:42:42.082Z,100223.57
2022-10-01T01:45:16.034Z,100224.36
2022-10-01T01:47:45.947Z,100228.14
2022-10-01T01:50:15.869Z,100228.90
2022-10-01T01:52:43.843Z,100230.48
2022-10-01T01:55:12.328Z,100235.53
2022-10-01T01:57:43.677Z,100237.02
2022-10-01T02:00:14.416Z,100235.52
2022-10-01T02:02:50.376Z,100231.60
2022-10-01T02:05:23.458Z,100230.31
2022-10-01T02:08:13.524Z,100238.71
2022-10-01T02:10:41.304Z,100244.33
2022-10-01T02:13:15.316Z,100243.55
2022-10-01T02:15:55.399Z,100243.23
2022-10-01T02:18:40.461Z,100244.61
2022-10-01T02:21:31.981Z,100240.62
2022-10-01T02:24:27.619Z,100242.44
2022-10-01T02:26:57.665Z,100248.73
2022-10-01T02:29:25.662Z,100244.80
2022-10-01T02:31:56.301Z,100238.97
2022-10-01T02:34:29.391Z,100235.89
2022-10-01T02:37:01.139Z,100229.25
2022-10-01T02:39:32.481Z,100225.88
2022-10-01T02:42:02.086Z,100223.24
2022-10-01T02:44:38.208Z,100213.55
2022-10-01T02:47:11.865Z,100206.67
2022-10-01T02:49:41.417Z,100203.97
2022-10-01T02:52:17.318Z,100205.36
2022-10-01T02:55:03.465Z,100205.37
2022-10-01T02:57:33.026Z,100202.20
2022-10-01T03:00:06.525Z,100201.32
2022-10-01T03:02:34.961Z,100197.33
2022-10-01T03:05:03.932Z,100196.17
2022-10-01T03:07:35.673Z,100192.11
2022-10-01T03:10:08.626Z,100187.58
2022-10-01T03:12:37.741Z,100180.52
2022-10-01T03:15:07.275Z,100177.84
2022-10-01T03:17:37.291Z,100177.54
2022-10-01T03:20:06.774Z,100177.52
2022-10-01T03:22:34.719Z,100176.27
2022-10-01T03:25:02.850Z,100171.44
2022-10-01T03:27:30.730Z,100163.84
2022-10-01T03:29:58.567Z,100163.40
2022-10-01T03:32:26.441Z,100168.41
2022-10-01T03:34:54.518Z,100169.11
2022-10-01T03:37:22.472Z,100172.92
2022-10-01T03:39:50.385Z,100175.16
2022-10-01T03:42:18.235Z,100177.52
2022-10-01T03:44:46.033Z,100182.98
2022-10-01T03:47:14.384Z,100189.10
2022-10-01T03:49:42.257Z,100195.87
2022-10-01T03:52:10.130Z,100198.52
2022-10-01T03:54:39.497Z,100200.00
2022-10-01T03:57:07.351Z,100201.60
2022-10-01T03:59:36.301Z,100202.16
2022-10-01T04:02:04.206Z,100202.85
2022-10-01T04:04:32.144Z,100203.24
2022-10-01T04:07:00.002Z,100204.02
2022-10-01T04:09:27.886Z,100202.58
2022-10-01T04:11:56.176Z,100196.24
2022-10-01T04:14:23.938Z,100196.70
2022-10-01T04:16:52.707Z,100197.92
2022-10-01T04:19:20.803Z,100201.01
2022-10-01T04:21:48.936Z,100203.06
2022-10-01T04:24:16.854Z,100199.98
2022-10-01T04:26:44.722Z,100194.14
2022-10-01T04:29:12.534Z,100196.14
2022-10-01T04:31:40.434Z,100192.41
2022-10-01T04:34:08.340Z,100191.20
2022-10-01T04:36:36.088Z,100189.66
2022-10-01T04:39:03.953Z,100188.03
2022-10-01T04:41:32.402Z,100184.40
2022-10-01T04:44:00.884Z,100184.05
2022-10-01T04:46:30.538Z,100183.48
2022-10-01T04:48:58.637Z,100183.31
2022-10-01T04:51:26.475Z,100181.13
2022-10-01T04:53:54.486Z,100183.41
2022-10-01T04:56:22.372Z,100184.84
2022-10-01T04:58:50.322Z,100187.18
2022-10-01T05:01:18.238Z,100191.95
2022-10-01T05:03:47.729Z,100195.86
2022-10-01T05:06:15.502Z,100193.99
2022-10-01T05:08:43.342Z,100194.16
2022-10-01T05:11:11.328Z,100196.19
2022-10-01T05:13:40.495Z,100197.36
2022-10-01T05:16:08.679Z,100196.64
2022-10-01T05:18:36.422Z,100193.02
2022-10-01T05:21:05.990Z,100193.43
2022-10-01T05:23:34.460Z,100197.73
2022-10-01T05:26:04.383Z,100201.76
2022-10-01T05:28:32.718Z,100200.13
2022-10-01T05:31:01.891Z,100199.17
2022-10-01T05:33:31.367Z,100197.54
2022-10-01T05:35:59.239Z,100199.17
2022-10-01T05:38:27.007Z,100199.08
2022-10-01T05:40:54.778Z,100202.91
2022-10-01T05:43:22.534Z,100198.95
2022-10-01T05:45:51.340Z,100197.32
2022-10-01T05:48:19.313Z,100201.13
2022-10-01T05:50:47.200Z,100196.89
2022-10-01T05:53:16.193Z,100195.41
2022-10-01T05:55:44.254Z,100200.27
2022-10-01T05:58:13.760Z,100198.77
2022-10-01T06:00:43.193Z,100199.37
2022-10-01T06:03:13.201Z,100197.90
2022-10-01T06:05:44.521Z,100200.13
2022-10-01T06:08:12.614Z,100198.81
2022-10-01T06:10:41.609Z,100200.54
2022-10-01T06:13:09.395Z,100199.37
2022-10-01T06:15:39.108Z,100198.09
2022-10-01T06:18:08.703Z,100199.13
2022-10-01T06:20:37.597Z,100194.92
2022-10-01T06:23:10.065Z,100192.17
2022-10-01T06:25:40.071Z,100185.53
2022-10-01T06:28:11.445Z,100187.98
2022-10-01T06:30:40.134Z,100187.63
2022-10-01T06:33:13.464Z,100185.31
2022-10-01T06:35:49.795Z,100185.46
2022-10-01T06:38:20.395Z,100183.13
2022-10-01T06:40:53.315Z,100184.55
2022-10-01T06:43:22.301Z,100178.60
2022-10-01T06:45:50.334Z,100174.92
2022-10-01T06:48:20.128Z,100177.92
2022-10-01T06:50:50.219Z,100173.38
2022-10-01T06:53:18.949Z,100177.90
2022-10-01T06:55:46.890Z,100172.13
2022-10-01T06:58:17.860Z,100174.06
2022-10-01T07:00:46.099Z,100174.79
2022-10-01T07:03:21.142Z,100169.20
2022-10-01T07:05:50.021Z,100168.93
2022-10-01T07:08:18.648Z,100169.55
2022-10-01T07:10:46.604Z,100173.08
2022-10-01T07:13:20.446Z,100173.88
2022-10-01T07:15:48.180Z,100171.88
2022-10-01T07:18:17.065Z,100165.39
2022-10-01T07:20:44.836Z,100162.10
2022-10-01T07:23:14.751Z,100162.46
2022-10-01T07:25:44.136Z,100161.86
2022-10-01T07:28:17.932Z,100160.36
2022-10-01T07:30:58.221Z,100166.50
2022-10-01T07:33:26.018Z,100171.00
2022-10-01T07:35:54.235Z,100170.83
2022-10-01T07:38:22.020Z,100167.41
2022-10-01T07:40:54.814Z,100169.86
2022-10-01T07:43:23.102Z,100165.70
2022-10-01T07:45:55.302Z,100162.73
2022-10-01T07:48:23.136Z,100165.55
2022-10-01T07:50:51.215Z,100165.73
2022-10-01T07:53:19.708Z,100166.08
2022-10-01T07:55:48.101Z,100164.18
2022-10-01T07:58:15.936Z,100170.98
2022-10-01T08:00:43.729Z,100177.36
2022-10-01T08:03:14.153Z,100177.30
2022-10-01T08:05:43.477Z,100179.28
2022-10-01T08:08:11.329Z,100182.14
2022-10-01T08:10:39.488Z,100175.91
2022-10-01T08:13:14.564Z,100172.52
2022-10-01T08:15:45.194Z,100171.78
2022-10-01T08:18:13.521Z,100168.41
2022-10-01T08:20:41.352Z,100164.42
2022-10-01T08:23:11.754Z,100161.22
2022-10-01T08:25:40.882Z,100161.56
2022-10-01T08:28:11.183Z,100158.73
2022-10-01T08:30:40.850Z,100155.01
2022-10-01T08:33:12.048Z,100154.85
2022-10-01T08:35:40.844Z,100154.92
2022-10-01T08:38:09.532Z,100151.80
2022-10-01T08:41:24.888Z,100150.84
2022-10-01T08:43:53.413Z,100140.75
2022-10-01T08:46:26.940Z,100134.29
2022-10-01T08:48:57.096Z,100136.23
2022-10-01T08:51:31.678Z,100143.98
2022-10-01T08:54:36.630Z,100141.42
2022-10-01T08:57:12.073Z,100140.34
2022-10-01T08:59:52.733Z,100132.77
2022-10-01T09:02:25.616Z,100124.31
2022-10-01T09:05:01.518Z,100123.72
2022-10-01T09:07:54.146Z,100125.21
2022-10-01T09:10:45.999Z,100123.33
2022-10-01T09:13:53.302Z,100124.02
2022-10-01T09:16:47.484Z,100116.36
2022-10-01T09:19:21.158Z,100112.20
2022-10-01T09:22:03.674Z,100111.76
2022-10-01T09:24:44.923Z,100110.39
2022-10-01T09:27:37.703Z,100111.88
2022-10-01T09:30:07.934Z,100107.98
2022-10-01T09:33:25.108Z,100104.42
2022-10-01T09:36:06.049Z,100105.80
2022-10-01T09:38:36.947Z,100107.14
2022-10-01T09:41:05.129Z,100104.41
2022-10-01T09:43:35.218Z,100103.36
2022-10-01T09:46:07.208Z,100103.31
2022-10-01T09:48:42.933Z,100103.77
2022-10-01T09:51:13.045Z,100101.59
2022-10-01T09:54:04.613Z,100097.94
2022-10-01T09:56:42.601Z,100096.11
2022-10-01T09:59:36.549Z,100086.64
2022-10-01T10:02:15.559Z,100080.95
2022-10-01T10:04:43.783Z,100078.70
2022-10-01T10:07:18.984Z,100075.95
2022-10-01T10:09:47.079Z,100075.04
2022-10-01T10:12:31.984Z,100079.64
2022-10-01T10:15:07.731Z,100083.65
2022-10-01T10:17:38.212Z,100081.60
2022-10-01T10:20:12.345Z,100082.98
2022-10-01T10:22:40.094Z,100080.70
2022-10-01T10:25:18.189Z,100078.23
2022-10-01T10:27:55.508Z,100072.27
2022-10-01T10:30:24.783Z,100065.39
2022-10-01T10:33:04.716Z,100060.23
2022-10-01T10:35:32.693Z,100051.58
2022-10-01T10:38:02.413Z,100049.51
2022-10-01T10:40:44.411Z,100046.13
2022-10-01T10:43:25.802Z,100039.89
2022-10-01T10:45:56.458Z,100035.80
2022-10-01T10:48:32.372Z,100031.48
2022-10-01T10:51:02.416Z,100022.46
2022-10-01T10:53:44.038Z,100024.34
2022-10-01T10:56:24.120Z,100017.95
2022-10-01T10:58:53.849Z,100015.30
2022-10-01T11:01:28.859Z,100013.09
2022-10-01T11:03:59.916Z,100009.03
2022-10-01T11:06:28.404Z,100006.11
2022-10-01T11:09:10.696Z,100001.13
2022-10-01T11:12:11.578Z,99994.52
2022-10-01T11:14:59.267Z,99986.75
2022-10-01T11:18:01.465Z,99980.76
2022-10-01T11:20:36.943Z,99979.52
2022-10-01T11:23:34.091Z,99978.80
2022-10-01T11:26:28.453Z,99967.71
2022-10-01T11:29:18.146Z,99961.95
2022-10-01T11:31:57.897Z,99952.45
2022-10-01T11:34:50.601Z,99943.92
2022-10-01T11:37:42.167Z,99932.90
2022-10-01T11:40:20.115Z,99928.27
2022-10-01T11:42:51.066Z,99922.70
2022-10-01T11:45:28.963Z,99914.27
2022-10-01T11:48:06.295Z,99911.22
2022-10-01T11:50:48.542Z,99909.70
2022-10-01T11:53:25.098Z,99907.13
2022-10-01T11:56:20.201Z,99901.39
2022-10-01T11:58:56.877Z,99898.38
2022-10-01T12:01:25.155Z,99894.13
2022-10-01T12:03:53.038Z,99886.59
2022-10-01T12:06:32.980Z,99885.91
2022-10-01T12:09:40.551Z,99880.35
2022-10-01T12:12:15.599Z,99884.30
2022-10-01T12:14:51.794Z,99875.67
2022-10-01T12:17:35.096Z,99875.30
2022-10-01T12:20:09.136Z,99878.39
2022-10-01T12:22:40.260Z,99875.83
2022-10-01T12:25:14.258Z,99870.20
2022-10-01T12:28:10.812Z,99868.36
2022-10-01T12:31:12.594Z,99866.39
2022-10-01T12:33:47.745Z,99861.51
2022-10-01T12:36:29.740Z,99853.60
2022-10-01T12:39:27.485Z,99851.17
2022-10-01T12:42:37.213Z,99846.38
2022-10-01T12:45:32.316Z,99843.91
2022-10-01T12:48:10.726Z,99844.99
2022-10-01T12:50:41.450Z,99840.02
2022-10-01T12:53:37.319Z,99833.19
2022-10-01T12:56:30.819Z,99830.34
2022-10-01T12:59:14.041Z,99828.52
2022-10-01T13:02:10.011Z,99818.03
2022-10-01T13:05:17.248Z,99816.52
2022-10-01T13:08:06.682Z,99817.61
2022-10-01T13:10:54.406Z,99818.94
2022-10-01T13:13:33.609Z,99816.23
2022-10-01T13:16:23.362Z,99809.66
2022-10-01T13:18:54.554Z,99808.49
2022-10-01T13:21:52.816Z,99804.83
2022-10-01T13:24:32.862Z,99806.95
2022-10-01T13:27:18.612Z,99801.45
2022-10-01T13:29:52.436Z,99799.27
2022-10-01T13:32:53.391Z,99798.35
2022-10-01T13:35:35.960Z,99797.54
2022-10-01T13:38:29.344Z,99795.73
2022-10-01T13:41:03.256Z,99790.15
2022-10-01T13:43:34.212Z,99787.86
2022-10-01T13:46:12.752Z,99786.09
2022-10-01T13:48:48.266Z,99782.98
2022-10-01T13:51:16.956Z,99784.27
2022-10-01T13:53:45.109Z,99787.94
2022-10-01T13:56:27.718Z,99785.45
2022-10-01T13:58:55.557Z,99778.80
2022-10-01T14:01:24.313Z,99776.70
2022-10-01T14:04:05.350Z,99772.02
2022-10-01T14:06:36.490Z,99763.63
2022-10-01T14:09:31.586Z,99752.77
2022-10-01T14:12:21.872Z,99746.92
2022-10-01T14:15:15.435Z,99742.25
2022-10-01T14:17:53.017Z,99737.90
2022-10-01T14:20:24.773Z,99742.30
2022-10-01T14:23:13.201Z,99740.65
2022-10-01T14:26:03.398Z,99743.05
2022-10-01T14:28:43.484Z,99745.20
2022-10-01T14:31:32.915Z,99738.02
2022-10-01T14:34:25.458Z,99735.15
2022-10-01T14:36:54.930Z,99727.24
2022-10-01T14:39:27.850Z,99728.02
2022-10-01T14:41:57.653Z,99730.02
2022-10-01T14:44:38.335Z,99723.81
2022-10-01T14:47:27.965Z,99724.53
2022-10-01T14:49:55.860Z,99722.16
2022-10-01T14:52:28.242Z,99719.51
2022-10-01T14:55:13.596Z,99712.20
2022-10-01T14:57:45.679Z,99707.07
2022-10-01T15:00:26.435Z,99709.91
2022-10-01T15:03:06.205Z,99704.69
2022-10-01T15:05:37.129Z,99703.79
2022-10-01T15:08:22.687Z,99700.11
2022-10-01T15:11:01.102Z,99697.02
2022-10-01T15:13:35.114Z,99692.87
2022-10-01T15:16:03.250Z,99691.49
2022-10-01T15:18:31.566Z,99688.55
2022-10-01T15:21:06.523Z,99684.13
2022-10-01T15:23:39.182Z,99676.91
2022-10-01T15:26:13.808Z,99674.73
2022-10-01T15:28:41.885Z,99674.91
2022-10-01T15:31:09.888Z,99668.84
2022-10-01T15:33:42.855Z,99664.38
2022-10-01T15:36:18.605Z,99665.17
2022-10-01T15:38:47.765Z,99658.19
2022-10-01T15:41:32.514Z,99654.73
2022-10-01T15:44:06.628Z,99653.66
2022-10-01T15:46:36.030Z,99652.73
2022-10-01T15:49:13.050Z,99652.90
2022-10-01T15:52:13.028Z,99656.08
2022-10-01T15:54:43.087Z,99660.92
2022-10-01T15:57:20.972Z,99657.41
2022-10-01T15:59:51.524Z,99650.36
2022-10-01T16:02:30.621Z,99652.80
2022-10-01T16:05:06.785Z,99647.67
2022-10-01T16:07:35.523Z,99642.95
2022-10-01T16:10:37.331Z,99639.14
2022-10-01T16:13:40.704Z,99627.44
2022-10-01T16:16:19.900Z,99625.61
2022-10-01T16:18:54.087Z,99615.29
2022-10-01T16:21:22.874Z,99608.90
2022-10-01T16:23:53.423Z,99605.95
2022-10-01T16:26:30.065Z,99600.38
2022-10-01T16:29:02.831Z,99597.99
2022-10-01T16:31:31.392Z,99595.48
2022-10-01T16:33:59.302Z,99592.01
2022-10-01T16:36:28.389Z,99586.95
2022-10-01T16:38:57.499Z,99585.68
2022-10-01T16:41:27.021Z,99594.26
2022-10-01T16:43:57.173Z,99597.85
2022-10-01T16:46:25.093Z,99599.02
2022-10-01T16:48:52.862Z,99600.29
2022-10-01T16:51:21.963Z,99600.17
2022-10-01T16:53:50.344Z,99593.37
2022-10-01T16:56:18.097Z,99587.09
2022-10-01T16:58:46.190Z,99583.36
2022-10-01T17:01:15.669Z,99579.09
2022-10-01T17:03:43.778Z,99581.34
2022-10-01T17:06:11.644Z,99578.66
2022-10-01T17:08:39.416Z,99576.02
2022-10-01T17:11:11.903Z,99570.61
2022-10-01T17:13:40.578Z,99565.16
2022-10-01T17:16:09.235Z,99556.63
2022-10-01T17:18:37.027Z,99552.81
2022-10-01T17:21:05.729Z,99553.34
2022-10-01T17:23:35.553Z,99559.36
2022-10-01T17:26:07.686Z,99557.61
2022-10-01T17:28:35.828Z,99559.79
2022-10-01T17:31:06.780Z,99557.27
2022-10-01T17:33:34.722Z,99551.94
2022-10-01T17:36:07.208Z,99555.17
2022-10-01T17:38:35.410Z,99552.66
2022-10-01T17:41:03.872Z,99552.04
2022-10-01T17:43:32.048Z,99551.29
2022-10-01T17:46:01.367Z,99548.70
2022-10-01T17:48:30.043Z,99548.13
2022-10-01T17:51:06.069Z,99546.96
2022-10-01T17:53:42.265Z,99545.55
2022-10-01T17:56:14.646Z,99548.82
2022-10-01T17:58:45.726Z,99551.44
2022-10-01T18:01:19.751Z,99552.67
2022-10-01T18:03:51.945Z,99550.06
2022-10-01T18:06:19.700Z,99546.63
2022-10-01T18:08:56.211Z,99543.35
2022-10-01T18:11:27.898Z,99543.78
2022-10-01T18:13:56.002Z,99541.59
2022-10-01T18:16:25.048Z,99533.21
2022-10-01T18:21:48.786Z,99527.89
2022-10-01T18:24:17.163Z,99529.89
2022-10-01T18:26:45.876Z,99528.11
2022-10-01T18:29:25.424Z,99528.17
2022-10-01T18:32:05.027Z,99524.94
2022-10-01T18:35:01.662Z,99521.86
2022-10-01T18:37:40.388Z,99524.04
2022-10-01T18:40:40.498Z,99514.36
2022-10-01T18:43:24.483Z,99507.65
2022-10-01T18:46:14.349Z,99505.93
2022-10-01T18:48:42.162Z,99504.63
2022-10-01T18:51:36.638Z,99506.54
2022-10-01T18:54:25.970Z,99501.33
2022-10-01T18:56:58.767Z,99497.73
2022-10-01T18:59:39.861Z,99495.74
2022-10-01T19:02:13.467Z,99494.64
2022-10-01T19:05:13.663Z,99493.98
2022-10-01T19:08:20.937Z,99487.32
2022-10-01T19:11:18.179Z,99489.05
2022-10-01T19:13:57.183Z,99486.05
2022-10-01T19:16:37.143Z,99485.27
2022-10-01T19:19:17.877Z,99482.34
2022-10-01T19:21:54.820Z,99481.05
2022-10-01T19:24:37.824Z,99485.80
2022-10-01T19:27:20.846Z,99485.55
2022-10-01T19:30:06.567Z,99483.40
2022-10-01T19:32:55.654Z,99479.27
2022-10-01T19:35:31.931Z,99473.89
2022-10-01T19:38:14.933Z,99464.44
2022-10-01T19:40:53.624Z,99460.50
2022-10-01T19:43:37.997Z,99456.30
2022-10-01T19:46:32.787Z,99450.55
2022-10-01T19:49:09.563Z,99451.98
2022-10-01T19:51:43.895Z,99455.41
2022-10-01T19:54:17.085Z,99458.67
2022-10-01T19:56:48.747Z,99464.00
2022-10-01T19:59:19.983Z,99462.00
2022-10-01T20:01:53.818Z,99464.61
2022-10-01T20:04:35.501Z,99462.37
2022-10-01T20:07:11.435Z,99460.79
2022-10-01T20:09:45.858Z,99459.58
2022-10-01T20:12:31.998Z,99464.27
2022-10-01T20:15:23.129Z,99460.80
2022-10-01T20:18:14.595Z,99459.84
2022-10-01T20:21:00.010Z,99456.58
2022-10-01T20:23:49.334Z,99457.38
2022-10-01T20:26:29.829Z,99461.23
2022-10-01T20:29:15.712Z,99458.88
2022-10-01T20:32:20.217Z,99458.67
2022-10-01T20:35:07.454Z,99457.35
2022-10-01T20:38:06.942Z,99451.58
2022-10-01T20:40:38.577Z,99453.28
2022-10-01T20:43:20.695Z,99452.08
2022-10-01T20:45:52.083Z,99444.41
2022-10-01T20:48:25.364Z,99448.14
2022-10-01T20:51:00.779Z,99447.80
2022-10-01T20:53:40.701Z,99444.90
2022-10-01T20:56:15.960Z,99445.54
2022-10-01T20:59:15.400Z,99441.66
2022-10-01T21:02:00.650Z,99441.13
2022-10-01T21:04:38.836Z,99445.23
2022-10-01T21:07:29.713Z,99463.80
2022-10-01T21:10:03.417Z,99480.32
2022-10-01T21:12:39.681Z,99495.84
2022-10-01T21:15:14.006Z,99494.28
2022-10-01T21:18:09.710Z,99491.82
2022-10-01T21:20:43.584Z,99494.80
2022-10-01T21:23:23.489Z,99498.39
2022-10-01T21:26:08.135Z,99495.83
2022-10-01T21:29:02.648Z,99498.10
2022-10-01T21:31:53.519Z,99500.52
2022-10-01T21:34:43.117Z,99505.27
2022-10-01T21:37:16.546Z,99503.58
2022-10-01T21:39:50.556Z,99503.77
2022-10-01T21:42:35.209Z,99504.13
2022-10-01T21:45:28.651Z,99502.88
2022-10-01T21:48:07.382Z,99506.89
2022-10-01T21:51:00.225Z,99499.28
2022-10-01T21:54:05.752Z,99506.73
2022-10-01T21:56:59.721Z,99500.48
2022-10-01T21:59:56.257Z,99503.34
2022-10-01T22:02:34.953Z,99504.14
2022-10-01T22:05:22.684Z,99507.39
2022-10-01T22:07:58.647Z,99506.59
2022-10-01T22:10:44.726Z,99505.81
2022-10-01T22:13:30.821Z,99504.73
2022-10-01T22:16:03.252Z,99503.21
2022-10-01T22:18:42.502Z,99501.90
2022-10-01T22:21:23.155Z,99505.77
2022-10-01T22:24:03.963Z,99504.50
2022-10-01T22:26:37.406Z,99509.48
2022-10-01T22:29:11.116Z,99512.05
2022-10-01T22:31:41.323Z,99518.35
2022-10-01T22:34:21.834Z,99517.05
2022-10-01T22:37:05.484Z,99511.89
2022-10-01T22:39:39.685Z,99510.09
2022-10-01T22:42:15.002Z,99511.91
2022-10-01T22:44:43.301Z,99512.44
2022-10-01T22:47:17.108Z,99513.73
2022-10-01T22:50:07.084Z,99513.99
2022-10-01T22:52:58.593Z,99514.10
2022-10-01T22:55:38.632Z,99520.03
2022-10-01T22:58:24.931Z,99521.52
2022-10-01T23:01:30.343Z,99522.67
2022-10-01T23:04:17.175Z,99528.02
2022-10-01T23:07:03.050Z,99527.82
2022-10-01T23:09:41.559Z,99528.77
2022-10-01T23:12:27.420Z,99529.73
2022-10-01T23:15:12.617Z,99527.62
2022-10-01T23:17:58.564Z,99525.23
2022-10-01T23:20:35.474Z,99525.41
2022-10-01T23:23:22.167Z,99527.10
2022-10-01T23:26:11.968Z,99529.79
2022-10-01T23:29:00.721Z,99527.68
2022-10-01T23:31:54.258Z,99530.36
2022-10-01T23:34:37.978Z,99531.63
2022-10-01T23:37:50.054Z,99531.71
2022-10-01T23:40:21.210Z,99533.42
2022-10-01T23:42:58.591Z,99530.30
2022-10-01T23:45:34.242Z,99533.27
2022-10-01T23:48:02.105Z,99533.86
2022-10-01T23:50:40.004Z,99535.94
2022-10-01T23:53:14.461Z,99533.73
2022-10-01T23:56:07.156Z,99535.33
2022-10-01T23:58:53.249Z,99536.96
